New York Mills, Minnesota
Current Conditions -  °F | °C
As of 5:15 AM on Sunday 23 Nov 2014 (Local Time) from KADC Reporting Station
Haze Haze  
Wind Chill: 34°   Ceiling: 11000
Heat Index: 34°   Visibility: 2.5mi
Dew Point: 32°   Wind: 0mph
Humidity: 93%   Direction: NA
Pressure: 29.37"   Gusts: NA
Location:  46.52°N, 95.38°W
Report Text: KADC 231115Z AUTO 00000KT 2 1/2SM BR BKN110 01/00 A2937 RMK AO2
Loading
Personal Weather Stations






























Interactive Weather Map New forecast layout! Learn more

10-Day Weather Forecast

Advertisements
Track Severe Weather on mobile